Time;durP1;ratioP1;P1;durP2;ratioP2;P2;SDS_P1;SDS_P2;PMS_P1;PMS_P2;Temp;Humidity;BMP_temperature;BMP_pressure;BME280_temperature;BME280_humidity;BME280_pressure;Samples;Min_cycle;Max_cycle;Signal;HPM_P1;HPM_P2
2024/01/18 00:01:52;;;;;;;;;;;;;;;23.76;23.93;99268.34;5038576;28;20523;-79
2024/01/18 00:04:18;;;;;;;;;;;;;;;23.84;23.86;99264.44;5041975;28;19920;-78
2024/01/18 00:06:43;;;;;;;;;;;;;;;23.87;23.72;99264.78;5037084;28;19921;-78
2024/01/18 00:09:08;;;;;;;;;;;;;;;23.89;23.49;99270.78;5038649;28;19921;-77
2024/01/18 00:11:33;;;;;;;;;;;;;;;23.90;23.68;99266.16;5041817;28;19917;-78
2024/01/18 00:14:00;;;;;;;;;;;;;;;23.93;23.47;99266.50;5036989;28;19920;-78
2024/01/18 00:16:27;;;;;;;;;;;;;;;23.96;23.47;99278.78;5045350;28;20433;-78
2024/01/18 00:18:52;;;;;;;;;;;;;;;23.98;23.65;99282.06;5047022;28;19919;-78
2024/01/18 00:21:17;;;;;;;;;;;;;;;23.99;23.62;99281.00;5039256;28;20438;-78
2024/01/18 00:23:42;;;;;;;;;;;;;;;24.02;23.32;99285.97;5039677;28;19939;-77
2024/01/18 00:26:08;;;;;;;;;;;;;;;24.03;23.51;99289.50;5036182;28;19914;-79
2024/01/18 00:28:33;;;;;;;;;;;;;;;24.00;23.59;99288.09;5059895;28;19919;-78
2024/01/18 00:30:59;;;;;;;;;;;;;;;23.98;23.70;99292.13;5040589;28;19918;-77
2024/01/18 00:33:25;;;;;;;;;;;;;;;23.98;23.51;99292.94;5038428;28;19928;-79
2024/01/18 00:35:50;;;;;;;;;;;;;;;23.99;23.38;99289.16;5037071;28;19920;-79
2024/01/18 00:38:15;;;;;;;;;;;;;;;24.00;23.63;99285.38;5029573;28;19914;-77
2024/01/18 00:40:41;;;;;;;;;;;;;;;24.00;23.45;99289.97;5042097;28;19918;-79
2024/01/18 00:43:07;;;;;;;;;;;;;;;23.99;23.39;99291.84;5038982;28;19917;-79
2024/01/18 00:45:32;;;;;;;;;;;;;;;23.98;23.36;99301.06;5044847;28;19924;-78
2024/01/18 00:47:57;;;;;;;;;;;;;;;23.98;23.38;99301.06;5036788;28;19917;-78
2024/01/18 00:50:22;;;;;;;;;;;;;;;23.98;23.67;99309.22;5036474;28;19928;-78
2024/01/18 00:52:47;;;;;;;;;;;;;;;23.94;23.18;99311.59;5038653;28;19913;-78
2024/01/18 00:55:13;;;;;;;;;;;;;;;23.92;23.41;99319.16;5038210;28;19909;-79
2024/01/18 00:57:38;;;;;;;;;;;;;;;23.90;23.59;99328.59;5038684;28;19913;-78
2024/01/18 01:00:05;;;;;;;;;;;;;;;23.91;23.45;99322.91;5038849;28;19940;-78
2024/01/18 01:02:30;;;;;;;;;;;;;;;23.91;23.41;99331.06;5039306;28;19960;-78
2024/01/18 01:04:55;;;;;;;;;;;;;;;23.92;23.42;99332.72;5038372;28;19924;-78
2024/01/18 01:07:20;;;;;;;;;;;;;;;23.92;23.46;99335.44;5041009;28;19932;-78
2024/01/18 01:09:46;;;;;;;;;;;;;;;23.92;23.45;99335.44;5044119;28;19947;-78
2024/01/18 01:12:11;;;;;;;;;;;;;;;23.94;23.35;99341.44;5039344;28;19913;-78
2024/01/18 01:14:36;;;;;;;;;;;;;;;23.97;23.44;99347.47;5039892;28;19913;-78
2024/01/18 01:17:01;;;;;;;;;;;;;;;23.95;23.16;99353.94;5040701;28;19991;-78
2024/01/18 01:19:27;;;;;;;;;;;;;;;23.93;23.31;99356.09;5039416;28;20001;-78
2024/01/18 01:21:52;;;;;;;;;;;;;;;23.92;23.36;99356.34;5035720;28;20433;-78
2024/01/18 01:24:17;;;;;;;;;;;;;;;23.91;23.54;99357.38;5033535;28;19925;-78
2024/01/18 01:26:42;;;;;;;;;;;;;;;23.90;23.44;99364.72;5040654;28;19952;-76
2024/01/18 01:29:10;;;;;;;;;;;;;;;23.89;23.46;99365.78;5043619;28;20357;-78
2024/01/18 01:31:35;;;;;;;;;;;;;;;23.93;23.33;99366.13;5042570;28;19917;-77
2024/01/18 01:34:00;;;;;;;;;;;;;;;23.93;23.16;99372.38;5038442;28;19919;-78
2024/01/18 01:36:26;;;;;;;;;;;;;;;23.95;23.28;99369.41;5036706;28;19925;-78
2024/01/18 01:38:51;;;;;;;;;;;;;;;23.94;23.51;99367.78;5043333;28;19963;-78
2024/01/18 01:41:16;;;;;;;;;;;;;;;23.91;23.42;99379.91;5054655;28;19913;-78
2024/01/18 01:43:58;;;;;;;;;;;;;;;23.86;23.43;99381.72;5047017;28;20328;-77
2024/01/18 01:46:23;;;;;;;;;;;;;;;23.80;23.56;99388.09;5035181;28;19914;-78
2024/01/18 01:48:48;;;;;;;;;;;;;;;23.76;23.46;99392.34;5032497;28;19924;-77
2024/01/18 01:51:13;;;;;;;;;;;;;;;23.68;23.67;99391.63;5039330;28;19921;-77
2024/01/18 01:53:38;;;;;;;;;;;;;;;23.67;23.73;99402.75;5037956;28;20289;-79
2024/01/18 01:56:04;;;;;;;;;;;;;;;23.66;23.95;99398.34;5039601;28;19939;-79
2024/01/18 01:58:29;;;;;;;;;;;;;;;23.66;23.60;99401.91;5042075;28;19958;-77
2024/01/18 02:00:54;;;;;;;;;;;;;;;23.68;23.48;99407.09;5041349;28;19917;-78
2024/01/18 02:03:19;;;;;;;;;;;;;;;23.66;23.67;99401.06;5042303;28;20037;-79
2024/01/18 02:05:44;;;;;;;;;;;;;;;23.62;23.57;99392.56;5040576;28;19948;-78
2024/01/18 02:08:10;;;;;;;;;;;;;;;23.62;23.71;99394.47;5037960;28;20366;-78
2024/01/18 02:10:35;;;;;;;;;;;;;;;23.59;23.93;99387.59;5038749;28;20503;-78
2024/01/18 02:13:01;;;;;;;;;;;;;;;23.60;23.75;99393.84;5037341;28;19920;-77
2024/01/18 02:15:26;;;;;;;;;;;;;;;23.62;23.83;99389.03;5040214;28;19921;-77
2024/01/18 02:17:51;;;;;;;;;;;;;;;23.64;23.92;99395.84;5041858;28;19917;-79
2024/01/18 02:20:16;;;;;;;;;;;;;;;23.63;23.85;99394.22;5042637;28;19925;-77
2024/01/18 02:22:45;;;;;;;;;;;;;;;23.63;23.59;99396.94;5042337;28;20568;-78
2024/01/18 02:25:16;;;;;;;;;;;;;;;23.63;23.80;99398.81;5048639;28;19916;-78
2024/01/18 02:27:41;;;;;;;;;;;;;;;23.59;23.63;99401.19;5045299;28;20285;-78
2024/01/18 02:30:07;;;;;;;;;;;;;;;23.55;23.98;99404.59;5043300;28;19917;-79
2024/01/18 02:32:32;;;;;;;;;;;;;;;23.50;23.81;99399.06;5042753;28;19917;-78
2024/01/18 02:34:57;;;;;;;;;;;;;;;23.43;24.12;99407.28;5040380;28;19913;-78
2024/01/18 02:37:22;;;;;;;;;;;;;;;23.40;24.14;99410.47;5045670;28;19924;-78
2024/01/18 02:39:48;;;;;;;;;;;;;;;23.39;23.95;99398.78;5039369;28;20462;-77
2024/01/18 02:42:13;;;;;;;;;;;;;;;23.38;23.85;99402.56;5040934;28;19935;-78
2024/01/18 02:44:38;;;;;;;;;;;;;;;23.39;23.92;99409.66;5037821;28;19963;-78
2024/01/18 02:47:04;;;;;;;;;;;;;;;23.39;23.95;99414.25;5034036;28;19921;-78
2024/01/18 02:49:29;;;;;;;;;;;;;;;23.39;24.02;99411.53;5040172;28;19967;-77
2024/01/18 02:51:55;;;;;;;;;;;;;;;23.39;23.73;99411.53;5043850;28;19917;-77
2024/01/18 02:54:20;;;;;;;;;;;;;;;23.38;23.93;99415.31;5048941;28;19913;-77
2024/01/18 02:56:45;;;;;;;;;;;;;;;23.39;24.03;99419.69;5043263;28;20019;-77
2024/01/18 02:59:11;;;;;;;;;;;;;;;23.39;24.05;99414.25;5042825;28;19966;-74
2024/01/18 03:01:36;;;;;;;;;;;;;;;23.41;24.01;99412.97;5039326;28;20449;-77
2024/01/18 03:04:01;;;;;;;;;;;;;;;23.41;23.80;99412.97;5040589;28;19913;-77
2024/01/18 03:06:27;;;;;;;;;;;;;;;23.42;23.92;99413.78;5041381;28;19923;-77
2024/01/18 03:08:52;;;;;;;;;;;;;;;23.43;23.78;99413.53;5039669;28;19919;-76
2024/01/18 03:11:17;;;;;;;;;;;;;;;23.45;23.99;99408.72;5043815;28;20109;-76
2024/01/18 03:13:42;;;;;;;;;;;;;;;23.52;23.86;99413.19;5040803;28;19914;-77
2024/01/18 03:16:08;;;;;;;;;;;;;;;23.51;23.82;99414.25;5040091;28;19924;-77
2024/01/18 03:18:34;;;;;;;;;;;;;;;23.49;23.79;99422.66;5043623;28;19917;-75
2024/01/18 03:20:59;;;;;;;;;;;;;;;23.49;23.94;99413.66;5037630;28;19917;-77
2024/01/18 03:23:24;;;;;;;;;;;;;;;23.48;23.95;99412.00;5037741;28;20012;-77
2024/01/18 03:25:49;;;;;;;;;;;;;;;23.49;23.84;99410.94;5037175;28;19917;-77
2024/01/18 03:28:15;;;;;;;;;;;;;;;23.51;23.70;99415.09;5037291;28;20421;-77
2024/01/18 03:30:40;;;;;;;;;;;;;;;23.50;23.47;99415.34;5041337;28;19927;-77
2024/01/18 03:33:05;;;;;;;;;;;;;;;23.47;23.79;99419.31;5037571;28;19917;-77
2024/01/18 03:35:30;;;;;;;;;;;;;;;23.49;23.93;99419.94;5043224;28;20003;-77
2024/01/18 03:37:56;;;;;;;;;;;;;;;23.49;23.77;99417.22;5044554;28;19913;-76
2024/01/18 03:40:22;;;;;;;;;;;;;;;23.49;23.82;99408.22;5039466;28;19999;-77
2024/01/18 03:42:47;;;;;;;;;;;;;;;23.49;23.94;99413.66;5039491;28;19913;-77
2024/01/18 03:45:12;;;;;;;;;;;;;;;23.50;23.84;99415.34;5036917;28;19935;-78
2024/01/18 03:47:37;;;;;;;;;;;;;;;23.50;23.55;99407.19;5058906;28;19918;-78
2024/01/18 03:50:03;;;;;;;;;;;;;;;23.49;23.84;99411.78;5058423;28;19928;-77
2024/01/18 03:52:28;;;;;;;;;;;;;;;23.48;23.46;99418.25;5040188;28;19913;-78
2024/01/18 03:54:53;;;;;;;;;;;;;;;23.48;23.64;99412.84;5034764;28;19917;-77
2024/01/18 03:57:18;;;;;;;;;;;;;;;23.49;23.64;99409.09;5033685;28;20359;-77
2024/01/18 03:59:47;;;;;;;;;;;;;;;23.48;23.66;99418.25;5042774;28;19981;-77
2024/01/18 04:02:13;;;;;;;;;;;;;;;23.50;23.65;99418.03;5039783;28;19976;-76
2024/01/18 04:04:38;;;;;;;;;;;;;;;23.52;23.38;99424.88;5047656;28;19920;-77
2024/01/18 04:07:03;;;;;;;;;;;;;;;23.51;23.33;99417.81;5044145;28;19920;-78
2024/01/18 04:09:29;;;;;;;;;;;;;;;23.52;23.28;99422.16;5041133;28;19917;-78
2024/01/18 04:11:54;;;;;;;;;;;;;;;23.55;23.58;99424.41;5042346;28;20002;-77
2024/01/18 04:14:19;;;;;;;;;;;;;;;23.57;23.45;99424.97;5039086;28;20012;-78
2024/01/18 04:16:44;;;;;;;;;;;;;;;23.55;23.22;99435.25;5038973;28;20726;-77
2024/01/18 04:19:09;;;;;;;;;;;;;;;23.53;23.53;99437.38;5038878;28;19921;-78
2024/01/18 04:21:35;;;;;;;;;;;;;;;23.54;23.32;99436.34;5037936;28;19918;-78
2024/01/18 04:24:00;;;;;;;;;;;;;;;23.52;23.35;99434.91;5038610;28;19923;-78
2024/01/18 04:26:27;;;;;;;;;;;;;;;23.47;23.41;99442.91;5040205;28;20038;-78
2024/01/18 04:28:52;;;;;;;;;;;;;;;23.42;23.55;99444.44;5037773;28;19913;-78
2024/01/18 04:31:18;;;;;;;;;;;;;;;23.42;23.36;99435.50;5038311;28;19944;-78
2024/01/18 04:33:43;;;;;;;;;;;;;;;23.35;23.75;99449.16;5041401;28;19913;-78
2024/01/18 04:36:08;;;;;;;;;;;;;;;23.34;23.64;99447.50;5040514;28;20425;-78
2024/01/18 04:38:33;;;;;;;;;;;;;;;23.33;23.74;99454.00;5039776;28;19913;-75
2024/01/18 04:40:59;;;;;;;;;;;;;;;23.31;23.68;99453.38;5037460;28;19951;-77
2024/01/18 04:43:24;;;;;;;;;;;;;;;23.29;23.60;99458.22;5036257;28;19944;-77
2024/01/18 04:45:49;;;;;;;;;;;;;;;23.26;23.87;99457.84;5041656;28;19936;-78
2024/01/18 04:48:15;;;;;;;;;;;;;;;23.25;23.58;99464.34;5039904;28;19924;-78
2024/01/18 04:50:40;;;;;;;;;;;;;;;23.20;23.74;99465.88;5036905;28;19979;-77
2024/01/18 04:53:05;;;;;;;;;;;;;;;23.20;23.68;99468.59;5036923;28;20382;-76
2024/01/18 04:55:31;;;;;;;;;;;;;;;23.19;23.98;99477.78;5035940;28;19914;-78
2024/01/18 04:57:56;;;;;;;;;;;;;;;23.20;23.61;99471.28;5039544;28;19924;-78
2024/01/18 05:00:21;;;;;;;;;;;;;;;23.16;23.72;99480.94;5051277;28;19924;-77
2024/01/18 05:02:47;;;;;;;;;;;;;;;23.18;23.86;99476.09;5046387;28;19927;-76
2024/01/18 05:05:12;;;;;;;;;;;;;;;23.19;23.83;99480.50;5045841;28;19924;-77
2024/01/18 05:07:37;;;;;;;;;;;;;;;23.19;23.56;99488.63;5040421;28;19921;-78
2024/01/18 05:10:04;;;;;;;;;;;;;;;23.19;23.83;99498.63;5036691;28;19921;-77
2024/01/18 05:12:29;;;;;;;;;;;;;;;23.16;23.48;99494.50;5037465;28;19913;-75
2024/01/18 05:14:54;;;;;;;;;;;;;;;23.12;23.51;99500.63;5039448;28;19920;-75
2024/01/18 05:17:21;;;;;;;;;;;;;;;23.08;23.91;99497.53;5041410;28;19923;-75
2024/01/18 05:19:46;;;;;;;;;;;;;;;23.02;24.01;99505.75;5042702;28;19944;-77
2024/01/18 05:22:12;;;;;;;;;;;;;;;22.97;23.93;99511.03;5044320;28;19917;-76
2024/01/18 05:24:37;;;;;;;;;;;;;;;22.90;23.98;99514.69;5038102;28;20007;-79
2024/01/18 05:27:02;;;;;;;;;;;;;;;22.84;24.24;99514.72;5039074;28;19945;-75
2024/01/18 05:29:27;;;;;;;;;;;;;;;22.81;24.35;99507.91;5031831;28;19982;-75
2024/01/18 05:31:52;;;;;;;;;;;;;;;22.79;24.23;99518.13;5030729;28;19921;-75
2024/01/18 05:34:18;;;;;;;;;;;;;;;22.75;24.44;99519.63;5036432;28;19916;-76
2024/01/18 05:36:43;;;;;;;;;;;;;;;22.71;24.38;99523.84;5033572;28;19921;-76
2024/01/18 05:39:08;;;;;;;;;;;;;;;22.66;24.37;99521.00;5035635;28;19960;-77
2024/01/18 05:41:33;;;;;;;;;;;;;;;22.64;24.55;99523.09;5037138;28;19918;-76
2024/01/18 05:43:59;;;;;;;;;;;;;;;22.60;24.80;99520.03;5042597;28;19918;-77
2024/01/18 05:46:24;;;;;;;;;;;;;;;22.57;24.63;99523.19;5040961;28;19924;-78
2024/01/18 05:48:49;;;;;;;;;;;;;;;22.58;24.53;99524.84;5036963;28;19920;-75
2024/01/18 05:51:15;;;;;;;;;;;;;;;22.56;24.74;99532.38;5035994;28;19925;-75
2024/01/18 05:53:40;;;;;;;;;;;;;;;22.53;24.75;99530.09;5032058;28;19917;-78
2024/01/18 05:56:06;;;;;;;;;;;;;;;22.50;24.70;99538.69;5049922;28;19916;-77
2024/01/18 05:58:31;;;;;;;;;;;;;;;22.46;24.87;99541.00;5038335;28;19963;-78
2024/01/18 06:00:56;;;;;;;;;;;;;;;22.43;25.17;99541.47;5036771;28;20329;-74
2024/01/18 06:03:21;;;;;;;;;;;;;;;22.42;25.10;99555.22;5029557;28;19913;-76
2024/01/18 06:05:47;;;;;;;;;;;;;;;22.40;24.92;99560.88;5029579;28;19917;-79
2024/01/18 06:08:12;;;;;;;;;;;;;;;22.36;25.08;99561.53;5011008;28;19948;-78
2024/01/18 06:10:37;;;;;;;;;;;;;;;22.35;25.39;99566.13;5008275;28;19925;-78
2024/01/18 06:13:02;;;;;;;;;;;;;;;22.34;25.03;99574.47;5005377;28;19924;-76
2024/01/18 06:15:27;;;;;;;;;;;;;;;22.31;25.25;99570.34;5017124;28;19914;-78
2024/01/18 06:17:53;;;;;;;;;;;;;;;22.29;25.18;99575.13;4999228;28;19914;-79
2024/01/18 06:20:18;;;;;;;;;;;;;;;22.32;25.12;99584.72;4997512;28;19921;-79
2024/01/18 06:22:43;;;;;;;;;;;;;;;22.30;25.24;99586.78;4996099;28;19918;-76
2024/01/18 06:25:08;;;;;;;;;;;;;;;22.29;25.30;99591.38;4996858;28;19915;-77
2024/01/18 06:27:35;;;;;;;;;;;;;;;22.27;25.47;99587.25;4996870;28;19924;-78
2024/01/18 06:30:00;;;;;;;;;;;;;;;22.12;25.40;99579.44;5013552;28;19984;-78
2024/01/18 06:32:25;;;;;;;;;;;;;;;22.26;25.18;99602.69;5015668;28;19933;-78
2024/01/18 06:34:51;;;;;;;;;;;;;;;22.25;25.55;99601.00;4993117;28;19913;-80
2024/01/18 06:37:16;;;;;;;;;;;;;;;22.26;25.44;99623.47;4996826;28;19952;-76
2024/01/18 06:39:41;;;;;;;;;;;;;;;22.23;25.48;99627.47;5011665;28;20366;-79
2024/01/18 06:42:07;;;;;;;;;;;;;;;22.24;25.47;99629.13;5013826;28;19929;-78
2024/01/18 06:44:33;;;;;;;;;;;;;;;22.23;25.43;99632.91;4997521;28;19917;-78
2024/01/18 06:46:59;;;;;;;;;;;;;;;22.23;25.31;99637.50;5002001;28;19921;-77
2024/01/18 06:49:24;;;;;;;;;;;;;;;22.23;25.61;99634.78;5012055;28;19921;-80
2024/01/18 06:51:50;;;;;;;;;;;;;;;22.21;25.55;99637.69;5010647;28;19941;-78
2024/01/18 06:54:17;;;;;;;;;;;;;;;22.19;25.40;99637.09;5010709;28;19918;-77
2024/01/18 06:56:44;;;;;;;;;;;;;;;22.19;25.50;99642.50;5013366;28;19988;-78
2024/01/18 06:59:09;;;;;;;;;;;;;;;22.19;25.52;99643.34;5000555;28;20024;-78
2024/01/18 07:01:34;;;;;;;;;;;;;;;22.22;25.42;99650.19;5014166;28;19945;-81
2024/01/18 07:03:59;;;;;;;;;;;;;;;22.20;25.58;99645.00;4997434;28;19914;-78
2024/01/18 07:06:24;;;;;;;;;;;;;;;22.21;25.44;99652.06;5016637;28;19974;-81
2024/01/18 07:08:51;;;;;;;;;;;;;;;22.18;25.39;99654.41;5049988;28;20397;-79
2024/01/18 07:11:16;;;;;;;;;;;;;;;22.18;25.52;99667.94;5051888;28;19996;-78
2024/01/18 07:13:41;;;;;;;;;;;;;;;22.16;25.57;99664.59;5036994;28;19917;-80
2024/01/18 07:16:08;;;;;;;;;;;;;;;22.16;25.39;99670.00;5033417;28;19948;-80
2024/01/18 07:18:33;;;;;;;;;;;;;;;22.14;25.48;99669.41;5043551;28;20004;-81
2024/01/18 07:20:59;;;;;;;;;;;;;;;22.12;25.46;99666.06;5036604;28;19918;-80
2024/01/18 07:23:24;;;;;;;;;;;;;;;22.10;25.47;99673.59;5043237;28;19914;-77
2024/01/18 07:25:50;;;;;;;;;;;;;;;22.09;25.41;99671.91;5041692;28;19924;-80
2024/01/18 07:28:16;;;;;;;;;;;;;;;22.04;25.61;99682.56;5042952;28;19917;-85
2024/01/18 07:30:41;;;;;;;;;;;;;;;22.00;25.93;99682.16;5043755;28;19976;-81
2024/01/18 07:33:07;;;;;;;;;;;;;;;21.95;25.86;99682.81;5028905;28;19970;-80
2024/01/18 07:35:32;;;;;;;;;;;;;;;21.95;25.76;99684.72;5037543;28;19917;-81
2024/01/18 07:37:58;;;;;;;;;;;;;;;21.92;25.70;99682.47;5035882;28;19960;-77
2024/01/18 07:40:23;;;;;;;;;;;;;;;21.88;25.70;99684.78;5038012;28;19914;-78
2024/01/18 07:42:49;;;;;;;;;;;;;;;21.89;25.95;99696.41;5036288;28;19924;-76
2024/01/18 07:45:14;;;;;;;;;;;;;;;21.91;25.65;99694.31;5035517;28;19924;-78
2024/01/18 07:47:40;;;;;;;;;;;;;;;21.94;25.58;99699.28;5038381;28;19925;-77
2024/01/18 07:50:05;;;;;;;;;;;;;;;21.95;25.45;99699.06;5036672;28;19924;-77
2024/01/18 07:52:30;;;;;;;;;;;;;;;21.99;25.64;99701.34;5040945;28;19976;-77
2024/01/18 07:54:55;;;;;;;;;;;;;;;21.98;25.67;99702.41;5040652;28;19913;-77
2024/01/18 07:57:21;;;;;;;;;;;;;;;22.00;25.56;99693.00;5041848;28;19924;-81
2024/01/18 07:59:46;;;;;;;;;;;;;;;21.99;25.25;99698.63;5038550;28;20325;-81
2024/01/18 08:02:11;;;;;;;;;;;;;;;22.00;25.36;99703.00;5033750;28;20655;-78
2024/01/18 08:04:36;;;;;;;;;;;;;;;22.01;25.48;99705.50;5040471;28;19949;-79
2024/01/18 08:07:01;;;;;;;;;;;;;;;22.03;25.43;99716.91;5038201;28;19943;-76
2024/01/18 08:09:26;;;;;;;;;;;;;;;22.02;25.53;99723.41;5037817;28;19921;-74
2024/01/18 08:11:52;;;;;;;;;;;;;;;22.00;25.54;99724.66;5040406;28;19922;-73
2024/01/18 08:14:17;;;;;;;;;;;;;;;22.02;25.56;99728.81;5035025;28;20063;-74
2024/01/18 08:16:42;;;;;;;;;;;;;;;22.02;25.56;99734.22;5039158;28;19917;-75
2024/01/18 08:19:07;;;;;;;;;;;;;;;22.01;25.38;99732.56;5050052;28;19924;-75
2024/01/18 08:21:32;;;;;;;;;;;;;;;22.00;25.62;99730.06;5046706;28;20326;-75
2024/01/18 08:23:58;;;;;;;;;;;;;;;22.03;25.53;99735.03;5038393;28;19951;-75
2024/01/18 08:26:23;;;;;;;;;;;;;;;22.04;25.65;99748.34;5040225;28;19921;-74
2024/01/18 08:28:48;;;;;;;;;;;;;;;22.03;25.30;99754.00;5040547;28;19917;-76
2024/01/18 08:31:13;;;;;;;;;;;;;;;22.04;25.42;99766.47;5038656;28;19917;-76
2024/01/18 08:33:39;;;;;;;;;;;;;;;22.05;25.26;99763.56;5037227;28;19988;-77
2024/01/18 08:36:05;;;;;;;;;;;;;;;22.06;25.17;99761.69;5035003;28;19955;-79
2024/01/18 08:38:30;;;;;;;;;;;;;;;22.05;25.46;99760.03;5039305;28;19921;-75
2024/01/18 08:40:56;;;;;;;;;;;;;;;22.05;25.63;99766.28;5046333;28;19925;-76
2024/01/18 08:43:26;;;;;;;;;;;;;;;22.07;25.31;99772.28;5037316;28;19917;-78
2024/01/18 08:45:52;;;;;;;;;;;;;;;22.08;25.39;99779.34;5040303;28;19983;-79
2024/01/18 08:48:17;;;;;;;;;;;;;;;22.09;25.24;99781.03;5035780;28;20659;-77
2024/01/18 08:50:42;;;;;;;;;;;;;;;22.08;25.44;99775.81;5035124;28;19929;-78
2024/01/18 08:53:08;;;;;;;;;;;;;;;22.08;25.43;99786.66;5045523;28;19917;-78
2024/01/18 08:55:33;;;;;;;;;;;;;;;22.04;25.14;99788.94;5034309;28;19924;-78
2024/01/18 08:57:58;;;;;;;;;;;;;;;22.08;25.15;99786.66;5038494;28;19949;-78
2024/01/18 09:00:24;;;;;;;;;;;;;;;22.09;25.23;99794.56;5031909;28;19937;-78
2024/01/18 09:02:49;;;;;;;;;;;;;;;22.10;25.35;99798.09;5040085;28;19948;-78
2024/01/18 09:05:14;;;;;;;;;;;;;;;22.10;25.48;99801.63;5037865;28;19939;-78
2024/01/18 09:07:39;;;;;;;;;;;;;;;22.11;25.12;99803.28;5038762;28;19933;-78
2024/01/18 09:10:06;;;;;;;;;;;;;;;22.11;24.94;99813.28;5040442;28;19922;-78
2024/01/18 09:12:32;;;;;;;;;;;;;;;22.10;25.36;99817.06;5032939;28;19920;-79
2024/01/18 09:14:57;;;;;;;;;;;;;;;22.08;25.31;99822.66;5041412;28;19916;-79
2024/01/18 09:17:22;;;;;;;;;;;;;;;22.10;25.48;99830.59;5038280;28;19928;-79
2024/01/18 09:19:48;;;;;;;;;;;;;;;22.10;25.33;99823.28;5037362;28;19913;-79
2024/01/18 09:22:13;;;;;;;;;;;;;;;22.11;25.40;99834.94;5037610;28;20055;-79
2024/01/18 09:24:38;;;;;;;;;;;;;;;22.13;25.29;99835.59;5034300;28;19971;-79
2024/01/18 09:27:03;;;;;;;;;;;;;;;22.12;25.52;99834.75;5039777;28;19924;-78
2024/01/18 09:29:28;;;;;;;;;;;;;;;22.15;25.08;99844.34;5040548;28;19924;-78
2024/01/18 09:31:56;;;;;;;;;;;;;;;22.16;25.23;99843.28;5045438;28;19920;-75
2024/01/18 09:34:21;;;;;;;;;;;;;;;22.15;25.46;99849.75;5039739;28;19959;-75
2024/01/18 09:36:46;;;;;;;;;;;;;;;22.16;25.35;99849.53;5041632;28;19913;-83
2024/01/18 09:39:15;;;;;;;;;;;;;;;22.16;25.43;99846.81;5037317;28;19978;-84
2024/01/18 09:41:41;;;;;;;;;;;;;;;22.17;25.44;99862.03;5035872;28;19963;-77
2024/01/18 09:44:07;;;;;;;;;;;;;;;22.16;25.64;99867.66;5034821;28;19917;-80
2024/01/18 09:46:32;;;;;;;;;;;;;;;22.18;25.44;99873.69;5028757;28;20282;-82
2024/01/18 09:48:57;;;;;;;;;;;;;;;22.19;25.63;99878.88;5037221;28;19916;-79
2024/01/18 09:51:23;;;;;;;;;;;;;;;22.20;25.62;99880.53;5039446;28;19921;-83
2024/01/18 09:53:54;;;;;;;;;;;;;;;22.21;25.73;99890.31;5038285;28;19941;-81
2024/01/18 09:56:38;;;;;;;;;;;;;;;22.24;25.59;99899.88;5035291;28;20329;-81
2024/01/18 09:59:04;;;;;;;;;;;;;;;22.25;25.61;99900.72;5035066;28;19920;-80
2024/01/18 10:01:29;;;;;;;;;;;;;;;22.26;25.69;99911.34;5037629;28;19914;-82
2024/01/18 10:03:54;;;;;;;;;;;;;;;22.27;25.84;99909.47;5042967;28;19975;-77
2024/01/18 10:06:19;;;;;;;;;;;;;;;22.27;25.68;99914.91;5042343;28;19929;-80
2024/01/18 10:08:45;;;;;;;;;;;;;;;22.29;25.94;99916.31;5038876;28;19913;-79
2024/01/18 10:11:10;;;;;;;;;;;;;;;22.31;25.88;99922.38;5035974;28;20024;-82
2024/01/18 10:13:51;;;;;;;;;;;;;;;22.34;25.66;99927.34;5033449;28;20313;-81
2024/01/18 10:16:29;;;;;;;;;;;;;;;22.36;25.65;99940.69;5035015;28;19994;-81
2024/01/18 10:19:00;;;;;;;;;;;;;;;22.40;25.69;99944.63;5035406;28;19921;-81
2024/01/18 10:21:25;;;;;;;;;;;;;;;22.41;25.66;99949.81;5036705;28;19921;-80
2024/01/18 10:23:51;;;;;;;;;;;;;;;22.44;25.58;99951.28;5036811;28;20070;-82
2024/01/18 10:26:17;;;;;;;;;;;;;;;22.45;25.69;99953.75;5040744;28;19920;-80
2024/01/18 10:28:42;;;;;;;;;;;;;;;22.49;25.74;99956.03;5047977;28;19966;-80
2024/01/18 10:31:07;;;;;;;;;;;;;;;22.50;25.56;99955.00;5043575;28;19928;-81
2024/01/18 10:33:32;;;;;;;;;;;;;;;22.52;25.66;99961.88;5038822;28;19921;-82
2024/01/18 10:35:58;;;;;;;;;;;;;;;22.55;25.60;99957.88;5035485;28;19959;-80
2024/01/18 10:38:29;;;;;;;;;;;;;;;22.57;25.77;99964.75;5041168;28;19914;-82
2024/01/18 10:40:54;;;;;;;;;;;;;;;22.58;25.57;99973.72;5040105;28;20609;-75
2024/01/18 10:43:20;;;;;;;;;;;;;;;22.60;25.53;99971.59;5042600;28;19984;-77
2024/01/18 10:45:45;;;;;;;;;;;;;;;22.61;25.67;99973.28;5039225;28;20370;-77
2024/01/18 10:48:10;;;;;;;;;;;;;;;22.62;25.81;99977.66;5046521;28;19917;-74
2024/01/18 10:50:36;;;;;;;;;;;;;;;22.66;25.47;99982.41;5041740;28;19922;-73
2024/01/18 10:53:01;;;;;;;;;;;;;;;22.70;25.61;99982.81;5037353;28;20443;-74
2024/01/18 10:55:26;;;;;;;;;;;;;;;22.75;25.50;99990.31;5034523;28;20832;-75
2024/01/18 10:57:52;;;;;;;;;;;;;;;22.77;25.74;99989.06;5039728;28;19920;-72
2024/01/18 11:00:17;;;;;;;;;;;;;;;22.81;25.41;99984.00;5039080;28;19917;-74
2024/01/18 11:02:44;;;;;;;;;;;;;;;22.84;25.48;99986.28;5037994;28;19918;-76
2024/01/18 11:05:10;;;;;;;;;;;;;;;22.88;25.38;99993.75;5038183;28;19967;-78
2024/01/18 11:07:39;;;;;;;;;;;;;;;22.94;25.31;99992.94;5037679;28;20073;-74
2024/01/18 11:10:10;;;;;;;;;;;;;;;23.03;25.29;100000.81;5035580;28;19986;-78
2024/01/18 11:12:36;;;;;;;;;;;;;;;23.06;25.45;99998.47;5022680;28;19924;-73
2024/01/18 11:15:02;;;;;;;;;;;;;;;23.11;25.12;100004.09;5043156;28;20008;-75
2024/01/18 11:17:27;;;;;;;;;;;;;;;23.16;25.29;100006.16;5046285;28;19917;-74
2024/01/18 11:19:54;;;;;;;;;;;;;;;23.23;25.23;100000.66;5037565;28;19913;-74
2024/01/18 11:22:23;;;;;;;;;;;;;;;23.31;25.31;100006.66;5037693;28;19952;-73
2024/01/18 11:24:48;;;;;;;;;;;;;;;23.38;25.01;100004.75;5036637;28;19917;-74
2024/01/18 11:27:17;;;;;;;;;;;;;;;23.38;25.23;100018.31;5038475;28;19981;-73
2024/01/18 11:29:43;;;;;;;;;;;;;;;23.38;25.25;100023.72;5038233;28;19922;-74
2024/01/18 11:32:11;;;;;;;;;;;;;;;23.39;25.06;100019.97;5033399;28;19944;-74
2024/01/18 11:34:36;;;;;;;;;;;;;;;23.35;25.61;100020.63;5040715;28;19963;-77
2024/01/18 11:37:12;;;;;;;;;;;;;;;23.26;25.69;100022.75;5036814;28;19913;-77
2024/01/18 11:39:52;;;;;;;;;;;;;;;23.19;25.88;100028.25;5048678;28;20406;-77
2024/01/18 11:42:21;;;;;;;;;;;;;;;23.13;25.83;100036.41;5041130;28;19913;-76
2024/01/18 11:44:53;;;;;;;;;;;;;;;23.08;25.90;100033.53;5039098;28;19914;-80
2024/01/18 11:47:18;;;;;;;;;;;;;;;23.03;26.17;100034.19;5038615;28;20020;-79
2024/01/18 11:49:43;;;;;;;;;;;;;;;23.02;26.22;100040.63;5035536;28;20424;-76
2024/01/18 11:52:09;;;;;;;;;;;;;;;22.99;26.22;100038.38;5035636;28;20708;-75
2024/01/18 11:54:34;;;;;;;;;;;;;;;22.97;26.23;100051.28;5036062;28;19913;-78
2024/01/18 11:57:00;;;;;;;;;;;;;;;22.90;26.34;100047.81;5032918;28;19932;-74
2024/01/18 11:59:25;;;;;;;;;;;;;;;22.89;26.29;100048.81;5047803;28;19924;-75
2024/01/18 12:01:53;;;;;;;;;;;;;;;22.86;26.21;100047.38;5042072;28;19940;-75
2024/01/18 12:04:19;;;;;;;;;;;;;;;22.85;26.51;100050.28;5036573;28;19917;-75
2024/01/18 12:06:44;;;;;;;;;;;;;;;22.81;26.35;100054.47;5040232;28;19933;-74
2024/01/18 12:09:10;;;;;;;;;;;;;;;22.77;26.56;100064.94;5043456;28;19921;-74
2024/01/18 12:11:35;;;;;;;;;;;;;;;22.76;26.68;100071.38;5048145;28;19932;-75
2024/01/18 12:14:00;;;;;;;;;;;;;;;22.75;26.62;100058.88;5046923;28;19947;-76
2024/01/18 12:16:26;;;;;;;;;;;;;;;22.74;26.56;100059.94;5036881;28;19924;-75
2024/01/18 12:18:51;;;;;;;;;;;;;;;22.73;26.68;100074.53;5035389;28;19917;-75
2024/01/18 12:21:18;;;;;;;;;;;;;;;22.71;26.92;100071.19;5026857;28;20266;-75
2024/01/18 12:23:44;;;;;;;;;;;;;;;22.70;26.85;100074.94;5036454;28;19944;-76
2024/01/18 12:26:09;;;;;;;;;;;;;;;22.68;26.74;100077.03;5037672;28;19998;-74
2024/01/18 12:28:34;;;;;;;;;;;;;;;22.66;26.77;100076.44;5047189;28;20339;-77
2024/01/18 12:31:02;;;;;;;;;;;;;;;22.66;26.90;100089.97;5036873;28;19927;-76
2024/01/18 12:33:31;;;;;;;;;;;;;;;22.65;26.92;100091.03;5037134;28;20012;-69
2024/01/18 12:35:56;;;;;;;;;;;;;;;22.64;26.96;100095.63;5042447;28;20396;-69
2024/01/18 12:38:22;;;;;;;;;;;;;;;22.52;27.05;100081.06;5041926;28;19916;-69